Time;durP1;ratioP1;P1;durP2;ratioP2;P2;SDS_P1;SDS_P2;PMS_P1;PMS_P2;Temp;Humidity;BMP_temperature;BMP_pressure;BME280_temperature;BME280_humidity;BME280_pressure;Samples;Min_cycle;Max_cycle;Signal;HPM_P1;HPM_P2
2022/07/13 00:01:18;;;;;;;0.60;0.60;;;;;;;13.14;82.45;97977.41;104895;1271;74192;-19
2022/07/13 00:03:45;;;;;;;0.40;0.40;;;;;;;12.95;83.15;97972.05;105147;1271;61128;-19
2022/07/13 00:06:13;;;;;;;0.20;0.20;;;;;;;12.93;83.68;97973.41;105075;1271;62900;-19
2022/07/13 00:08:41;;;;;;;0.60;0.40;;;;;;;13.17;82.90;97970.67;105259;1270;76660;-20
2022/07/13 00:11:09;;;;;;;1.30;0.40;;;;;;;13.18;82.59;97971.80;104968;1272;76961;-20
2022/07/13 00:13:36;;;;;;;0.40;0.40;;;;;;;12.90;83.84;97962.94;105055;1271;74448;-19
2022/07/13 00:16:04;;;;;;;0.30;0.30;;;;;;;12.97;83.86;97961.03;105056;1271;62245;-19
2022/07/13 00:18:32;;;;;;;0.20;0.20;;;;;;;13.10;83.55;97957.51;104986;1271;62861;-19
2022/07/13 00:21:00;;;;;;;0.30;0.30;;;;;;;12.86;84.60;97950.67;105041;1271;76604;-19
2022/07/13 00:23:28;;;;;;;0.30;0.30;;;;;;;12.82;84.78;97940.29;104913;1271;77044;-19
2022/07/13 00:25:55;;;;;;;0.20;0.20;;;;;;;13.07;83.88;97937.41;104792;1271;75334;-19
2022/07/13 00:28:22;;;;;;;0.20;0.20;;;;;;;13.05;83.97;97932.04;104757;1271;61023;-19
2022/07/13 00:30:50;;;;;;;0.30;0.30;;;;;;;13.03;83.72;97930.41;105011;1271;61182;-19
2022/07/13 00:33:17;;;;;;;0.20;0.20;;;;;;;12.95;84.12;97924.42;105130;1271;76316;-19
2022/07/13 00:35:44;;;;;;;0.20;0.20;;;;;;;13.25;82.87;97909.83;105096;1271;76972;-20
2022/07/13 00:38:12;;;;;;;0.40;0.30;;;;;;;13.19;82.92;97915.39;105118;1271;75388;-19
2022/07/13 00:40:40;;;;;;;2.60;0.70;;;;;;;13.03;83.66;97907.41;105101;1271;64399;-19
2022/07/13 00:43:08;;;;;;;0.30;0.20;;;;;;;13.17;83.55;97911.80;104823;1271;62980;-19
2022/07/13 00:45:35;;;;;;;1.30;0.30;;;;;;;13.25;82.71;97899.61;105118;1271;76223;-19
2022/07/13 00:48:03;;;;;;;0.20;0.20;;;;;;;13.21;82.52;97892.30;104800;1271;77150;-18
2022/07/13 00:50:31;;;;;;;0.40;0.30;;;;;;;13.12;83.34;97883.20;104706;1271;75452;-18
2022/07/13 00:52:58;;;;;;;0.20;0.20;;;;;;;13.32;82.54;97882.46;105032;1271;61141;-19
2022/07/13 00:55:25;;;;;;;0.80;0.50;;;;;;;13.37;82.32;97879.23;104835;1271;61804;-19
2022/07/13 00:57:53;;;;;;;0.60;0.20;;;;;;;13.08;83.44;97877.43;104940;1271;76572;-19
2022/07/13 01:00:20;;;;;;;0.30;0.30;;;;;;;13.06;84.05;97876.60;104764;1271;75915;-19
2022/07/13 01:02:48;;;;;;;0.90;0.60;;;;;;;13.17;83.43;97867.92;105071;1270;75424;-20
2022/07/13 01:05:17;;;;;;;0.80;0.30;;;;;;;13.11;83.70;97861.20;105146;1271;62794;-19
2022/07/13 01:07:44;;;;;;;0.40;0.40;;;;;;;13.08;83.88;97853.70;105083;1271;61919;-18
2022/07/13 01:10:12;;;;;;;0.30;0.30;;;;;;;13.14;83.63;97842.63;105060;1271;75822;-19
2022/07/13 01:12:40;;;;;;;0.30;0.30;;;;;;;13.12;83.36;97846.13;105037;1271;77019;-19
2022/07/13 01:15:08;;;;;;;0.60;0.30;;;;;;;13.01;83.96;97839.75;105106;1271;74175;-19
2022/07/13 01:17:36;;;;;;;0.30;0.30;;;;;;;13.15;83.98;97841.40;105221;1271;62955;-19
2022/07/13 01:20:05;;;;;;;2.40;0.30;;;;;;;13.23;83.11;97840.35;104877;1274;62316;-19
2022/07/13 01:22:35;;;;;;;0.60;0.20;;;;;;;13.07;83.83;97834.55;105207;1271;75269;-18
2022/07/13 01:25:06;;;;;;;0.20;0.20;;;;;;;13.16;83.63;97832.77;105103;1271;75973;-19
2022/07/13 01:27:36;;;;;;;0.20;0.20;;;;;;;13.30;83.16;97840.05;104845;1271;75339;-19
2022/07/13 01:30:04;;;;;;;0.20;0.20;;;;;;;13.34;82.77;97837.21;104941;1271;61840;-19
2022/07/13 01:32:49;;;;;;;0.90;0.30;;;;;;;13.19;83.24;97836.52;104923;1272;63081;-19
2022/07/13 01:35:18;;;;;;;0.50;0.20;;;;;;;13.26;83.62;97835.20;104930;1271;75605;-18
2022/07/13 01:37:45;;;;;;;0.30;0.30;;;;;;;13.32;83.02;97826.83;104720;1271;77022;-19
2022/07/13 01:40:15;;;;;;;2.00;0.30;;;;;;;13.23;83.36;97829.57;104962;1271;75519;-19
2022/07/13 01:42:44;;;;;;;0.30;0.30;;;;;;;13.11;84.29;97825.31;104927;1272;63505;-18
2022/07/13 01:45:13;;;;;;;0.30;0.20;;;;;;;13.28;83.67;97829.06;104710;1271;62803;-18
2022/07/13 01:47:42;;;;;;;0.20;0.20;;;;;;;13.46;82.45;97825.14;104666;1271;76888;-19
2022/07/13 01:50:10;;;;;;;0.20;0.20;;;;;;;13.33;82.76;97824.27;104754;1271;76980;-18
2022/07/13 01:52:37;;;;;;;0.20;0.20;;;;;;;13.07;83.97;97818.61;104652;1271;75856;-19
2022/07/13 01:55:06;;;;;;;0.20;0.20;;;;;;;13.26;83.44;97827.69;104865;1271;63124;-19
2022/07/13 01:57:34;;;;;;;0.60;0.30;;;;;;;13.33;82.76;97826.05;105017;1271;61092;-19
2022/07/13 02:00:08;;;;;;;0.30;0.20;;;;;;;13.18;83.35;97825.37;105031;1271;76399;-18
2022/07/13 02:02:39;;;;;;;0.30;0.20;;;;;;;13.17;83.96;97821.82;105103;1271;75911;-19
2022/07/13 02:05:10;;;;;;;0.50;0.20;;;;;;;13.42;82.58;97818.44;105113;1271;75325;-19
2022/07/13 02:07:40;;;;;;;2.20;0.30;;;;;;;13.33;82.93;97817.30;105157;1271;61810;-19
2022/07/13 02:10:09;;;;;;;0.20;0.20;;;;;;;13.14;83.59;97811.52;104858;1271;61864;-19
2022/07/13 02:12:37;;;;;;;0.20;0.20;;;;;;;13.21;83.77;97812.19;104917;1271;76630;-19
2022/07/13 02:15:08;;;;;;;0.10;0.10;;;;;;;13.39;83.00;97810.00;104947;1271;76989;-19
2022/07/13 02:17:37;;;;;;;0.30;0.30;;;;;;;13.24;83.32;97806.75;104806;1271;75335;-19
2022/07/13 02:20:09;;;;;;;0.20;0.20;;;;;;;13.11;83.97;97803.40;104989;1271;64952;-19
2022/07/13 02:22:41;;;;;;;1.70;0.20;;;;;;;13.31;83.54;97808.48;104898;1271;63097;-19
2022/07/13 02:25:09;;;;;;;0.20;0.20;;;;;;;13.45;82.75;97801.68;104760;1271;76745;-20
2022/07/13 02:27:38;;;;;;;0.20;0.20;;;;;;;13.22;83.57;97792.17;105149;1271;75474;-18
2022/07/13 02:30:07;;;;;;;0.30;0.20;;;;;;;13.20;84.10;97798.02;105122;1271;73103;-19
2022/07/13 02:32:36;;;;;;;0.20;0.20;;;;;;;13.28;83.83;97795.00;104908;1272;61638;-19
2022/07/13 02:35:04;;;;;;;0.20;0.20;;;;;;;13.31;83.46;97793.34;105061;1271;62379;-20
2022/07/13 02:37:32;;;;;;;0.20;0.20;;;;;;;13.07;84.48;97794.38;104811;1271;76574;-20
2022/07/13 02:40:00;;;;;;;0.30;0.20;;;;;;;13.22;84.35;97792.52;105116;1271;75941;-20
2022/07/13 02:42:27;;;;;;;0.20;0.20;;;;;;;13.48;82.96;97795.55;105097;1271;75339;-20
2022/07/13 02:44:54;;;;;;;0.20;0.20;;;;;;;13.56;82.54;97796.96;105121;1271;61148;-20
2022/07/13 02:47:23;;;;;;;0.20;0.20;;;;;;;13.29;83.64;97796.85;105090;1271;61042;-20
2022/07/13 02:49:51;;;;;;;0.20;0.20;;;;;;;13.35;84.01;97797.41;105121;1274;76290;-20
2022/07/13 02:52:19;;;;;;;0.20;0.20;;;;;;;13.56;83.11;97798.36;105116;1271;77037;-20
2022/07/13 02:54:47;;;;;;;1.80;0.20;;;;;;;13.50;83.20;97799.91;104913;1271;75512;-21
2022/07/13 02:57:15;;;;;;;0.20;0.20;;;;;;;13.30;84.02;97794.79;104706;1272;63305;-20
2022/07/13 02:59:44;;;;;;;0.30;0.30;;;;;;;13.40;84.16;97794.57;104647;1271;61134;-19
2022/07/13 03:02:12;;;;;;;0.30;0.20;;;;;;;13.66;83.04;97796.56;105092;1271;76344;-20
2022/07/13 03:04:40;;;;;;;0.20;0.20;;;;;;;13.55;83.12;97790.46;105040;1274;76871;-20
2022/07/13 03:07:08;;;;;;;0.30;0.20;;;;;;;13.40;83.78;97794.19;105170;1271;74125;-20
2022/07/13 03:09:35;;;;;;;0.30;0.20;;;;;;;13.37;84.37;97794.80;105127;1271;63715;-19
2022/07/13 03:12:03;;;;;;;0.20;0.20;;;;;;;13.59;83.36;97796.13;105107;1271;61934;-20
2022/07/13 03:14:30;;;;;;;0.20;0.20;;;;;;;13.65;83.07;97800.55;104995;1271;75479;-21
2022/07/13 03:16:58;;;;;;;0.60;0.20;;;;;;;13.48;83.42;97795.61;104838;1271;77019;-20
2022/07/13 03:19:26;;;;;;;0.20;0.20;;;;;;;13.34;84.71;97799.25;104741;1271;75562;-20
2022/07/13 03:21:53;;;;;;;0.30;0.30;;;;;;;13.62;83.79;97795.14;104828;1271;63003;-20
2022/07/13 03:24:21;;;;;;;0.40;0.20;;;;;;;13.63;83.39;97799.14;104742;1274;62677;-20
2022/07/13 03:26:49;;;;;;;0.20;0.20;;;;;;;13.32;84.74;97798.95;104995;1271;76413;-21
2022/07/13 03:29:16;;;;;;;0.40;0.20;;;;;;;13.32;85.04;97796.55;105059;1270;75948;-20
2022/07/13 03:31:44;;;;;;;0.20;0.20;;;;;;;13.64;83.79;97797.81;104869;1272;73051;-20
2022/07/13 03:34:11;;;;;;;1.70;0.30;;;;;;;13.68;83.31;97799.98;105022;1271;61227;-20
2022/07/13 03:36:39;;;;;;;0.40;0.20;;;;;;;13.55;83.70;97803.35;105090;1271;63421;-20
2022/07/13 03:39:07;;;;;;;1.60;0.20;;;;;;;13.44;84.37;97802.70;104780;1271;76535;-20
2022/07/13 03:41:35;;;;;;;0.20;0.20;;;;;;;13.76;83.35;97801.29;104788;1274;76947;-20
2022/07/13 03:44:03;;;;;;;0.80;0.20;;;;;;;13.81;82.93;97803.73;105074;1271;74265;-20
2022/07/13 03:46:31;;;;;;;0.30;0.20;;;;;;;13.62;83.44;97802.02;105114;1271;63120;-20
2022/07/13 03:48:59;;;;;;;0.40;0.20;;;;;;;13.48;84.51;97803.78;104773;1271;61156;-20
2022/07/13 03:51:27;;;;;;;0.20;0.20;;;;;;;13.73;83.88;97803.77;105080;1271;76628;-20
2022/07/13 03:53:55;;;;;;;0.20;0.20;;;;;;;13.82;83.13;97807.77;105074;1272;76938;-20
2022/07/13 03:56:23;;;;;;;0.10;0.10;;;;;;;13.69;83.73;97816.63;104996;1271;75396;-20
2022/07/13 03:58:50;;;;;;;0.30;0.20;;;;;;;13.47;84.56;97814.42;104829;1271;61149;-20
2022/07/13 04:01:19;;;;;;;0.20;0.20;;;;;;;13.72;84.13;97817.02;104901;1271;61935;-20
2022/07/13 04:03:47;;;;;;;0.20;0.20;;;;;;;13.85;83.29;97817.94;104703;1271;76713;-20
2022/07/13 04:06:14;;;;;;;0.20;0.20;;;;;;;13.78;83.16;97815.04;104772;1271;77395;-21
2022/07/13 04:08:42;;;;;;;0.20;0.20;;;;;;;13.48;84.69;97819.16;104777;1271;75476;-20
2022/07/13 04:11:09;;;;;;;0.10;0.10;;;;;;;13.71;84.21;97820.88;104933;1271;61144;-20
2022/07/13 04:13:39;;;;;;;0.30;0.30;;;;;;;14.02;82.72;97818.45;105008;1271;62494;-20
2022/07/13 04:16:07;;;;;;;0.20;0.20;;;;;;;13.85;83.40;97817.77;105111;1271;76354;-20
2022/07/13 04:18:36;;;;;;;0.70;0.30;;;;;;;13.65;84.12;97817.44;105131;1271;76963;-21
2022/07/13 04:21:04;;;;;;;0.30;0.30;;;;;;;13.56;84.64;97818.73;105148;1271;75416;-20
2022/07/13 04:23:31;;;;;;;0.50;0.20;;;;;;;13.86;83.59;97820.96;105037;1272;62764;-21
2022/07/13 04:25:58;;;;;;;0.60;0.30;;;;;;;13.90;82.98;97820.34;105086;1271;63016;-20
2022/07/13 04:28:26;;;;;;;0.40;0.30;;;;;;;13.68;84.08;97831.36;104946;1271;75266;-20
2022/07/13 04:30:54;;;;;;;0.20;0.20;;;;;;;13.54;85.15;97830.84;105082;1271;75941;-20
2022/07/13 04:33:23;;;;;;;0.10;0.10;;;;;;;13.83;84.18;97824.81;105009;1274;75383;-20
2022/07/13 04:35:51;;;;;;;0.20;0.20;;;;;;;13.96;83.22;97824.25;105010;1272;62825;-20
2022/07/13 04:38:19;;;;;;;0.30;0.30;;;;;;;13.96;83.00;97827.39;105048;1271;61029;-20
2022/07/13 04:40:46;;;;;;;0.40;0.30;;;;;;;13.74;83.79;97829.30;105109;1271;76571;-20
2022/07/13 04:43:14;;;;;;;0.30;0.20;;;;;;;13.72;84.36;97826.73;104935;1271;76700;-20
2022/07/13 04:45:42;;;;;;;1.90;0.30;;;;;;;13.99;83.14;97828.98;104752;1271;73360;-21
2022/07/13 04:48:09;;;;;;;0.20;0.20;;;;;;;13.94;82.85;97832.48;105032;1271;63094;-20
2022/07/13 04:50:37;;;;;;;0.20;0.20;;;;;;;13.79;83.52;97833.77;105080;1271;61074;-20
2022/07/13 04:53:06;;;;;;;0.20;0.20;;;;;;;13.65;84.07;97828.91;105141;1271;76295;-20
2022/07/13 04:55:37;;;;;;;0.60;0.30;;;;;;;13.98;82.85;97827.98;105104;1269;76972;-20
2022/07/13 04:58:05;;;;;;;0.30;0.20;;;;;;;14.10;82.53;97835.68;104736;1272;75531;-20
2022/07/13 05:00:34;;;;;;;0.40;0.40;;;;;;;13.89;83.09;97829.17;104806;1271;61131;-20
2022/07/13 05:03:23;;;;;;;0.20;0.20;;;;;;;13.71;84.23;97829.48;104754;1272;62935;-20
2022/07/13 05:05:51;;;;;;;0.20;0.20;;;;;;;13.78;84.27;97826.13;104748;1274;75487;-20
2022/07/13 05:08:20;;;;;;;0.20;0.20;;;;;;;14.03;83.10;97826.19;105161;1271;76975;-20
2022/07/13 05:10:48;;;;;;;0.40;0.40;;;;;;;14.02;82.88;97825.77;105100;1271;75603;-21
2022/07/13 05:13:22;;;;;;;2.00;0.20;;;;;;;13.79;83.81;97828.93;104894;1271;61167;-21
2022/07/13 05:15:54;;;;;;;1.40;0.30;;;;;;;13.67;84.82;97831.75;104904;1271;61726;-21
2022/07/13 05:18:22;;;;;;;1.80;0.30;;;;;;;14.01;83.67;97831.80;104940;1271;75695;-21
2022/07/13 05:20:53;;;;;;;0.20;0.20;;;;;;;14.12;82.92;97824.42;104977;1271;75991;-21
2022/07/13 05:23:26;;;;;;;0.20;0.20;;;;;;;13.98;83.38;97829.54;104752;1272;75495;-21
2022/07/13 05:25:54;;;;;;;0.50;0.30;;;;;;;13.90;84.10;97834.43;105017;1271;64840;-21
2022/07/13 05:28:23;;;;;;;0.20;0.20;;;;;;;14.11;82.79;97826.27;105173;1272;62649;-21
2022/07/13 05:30:51;;;;;;;0.10;0.10;;;;;;;14.45;81.23;97826.83;105143;1271;75697;-21
2022/07/13 05:33:20;;;;;;;0.30;0.30;;;;;;;14.28;81.74;97824.35;105138;1271;77342;-22
2022/07/13 05:35:49;;;;;;;0.20;0.20;;;;;;;14.11;82.94;97833.43;104753;1272;74266;-22
2022/07/13 05:38:17;;;;;;;0.20;0.20;;;;;;;13.99;84.07;97836.55;104939;1272;64410;-22
2022/07/13 05:40:46;;;;;;;0.40;0.20;;;;;;;14.20;83.31;97831.06;104877;1271;63035;-22
2022/07/13 05:43:15;;;;;;;0.40;0.30;;;;;;;14.39;82.35;97827.48;105156;1271;76513;-22
2022/07/13 05:45:44;;;;;;;0.20;0.20;;;;;;;14.42;82.30;97830.41;105096;1271;75968;-22
2022/07/13 05:48:12;;;;;;;0.30;0.20;;;;;;;14.22;83.12;97823.45;105114;1271;75337;-22
2022/07/13 05:50:40;;;;;;;0.20;0.20;;;;;;;14.34;83.43;97832.20;104990;1271;62084;-22
2022/07/13 05:53:07;;;;;;;0.20;0.20;;;;;;;14.62;81.66;97828.94;104947;1272;61684;-22
2022/07/13 05:55:34;;;;;;;0.20;0.20;;;;;;;14.66;81.47;97831.04;105034;1271;76468;-22
2022/07/13 05:58:05;;;;;;;0.20;0.20;;;;;;;14.41;82.27;97835.09;105155;1271;76943;-22
2022/07/13 06:00:32;;;;;;;0.20;0.20;;;;;;;14.32;83.33;97844.47;105107;1272;74018;-23
2022/07/13 06:03:00;;;;;;;0.20;0.20;;;;;;;14.68;82.13;97841.63;104890;1271;61228;-22
2022/07/13 06:05:27;;;;;;;1.70;0.30;;;;;;;14.87;81.33;97845.44;105001;1271;62915;-23
2022/07/13 06:07:55;;;;;;;0.40;0.20;;;;;;;14.70;81.66;97844.20;105135;1271;76540;-23
2022/07/13 06:10:24;;;;;;;0.20;0.20;;;;;;;14.48;82.35;97846.70;104735;1269;77034;-23
2022/07/13 06:12:52;;;;;;;0.20;0.20;;;;;;;14.43;82.80;97848.65;104776;1272;75277;-23
2022/07/13 06:15:20;;;;;;;0.30;0.30;;;;;;;14.78;81.77;97844.99;105088;1271;63075;-23
2022/07/13 06:17:47;;;;;;;0.20;0.20;;;;;;;14.81;81.42;97841.94;105082;1271;61747;-23
2022/07/13 06:20:14;;;;;;;0.30;0.30;;;;;;;14.72;81.45;97839.23;104958;1271;75341;-23
2022/07/13 06:22:42;;;;;;;0.20;0.20;;;;;;;14.50;82.87;97839.52;104816;1274;77021;-23
2022/07/13 06:25:11;;;;;;;1.10;0.30;;;;;;;14.78;82.26;97844.27;104657;1271;73693;-23
2022/07/13 06:27:39;;;;;;;0.50;0.40;;;;;;;15.00;81.12;97846.37;104966;1272;61171;-23
2022/07/13 06:30:08;;;;;;;0.20;0.20;;;;;;;14.81;81.50;97847.05;105076;1271;61115;-23
2022/07/13 06:32:36;;;;;;;0.20;0.20;;;;;;;14.66;81.88;97847.60;105113;1271;75250;-23
2022/07/13 06:35:05;;;;;;;0.20;0.20;;;;;;;14.66;81.93;97845.30;105042;1271;75833;-23
2022/07/13 06:37:33;;;;;;;0.20;0.20;;;;;;;14.85;81.06;97842.10;105065;1271;75568;-23
2022/07/13 06:40:12;;;;;;;0.80;0.20;;;;;;;14.71;81.37;97839.13;104982;1271;62834;-24
2022/07/13 06:42:43;;;;;;;0.30;0.30;;;;;;;14.56;82.07;97845.08;104861;1271;63116;-24
2022/07/13 06:45:11;;;;;;;0.30;0.30;;;;;;;14.43;82.63;97835.52;104927;1271;76675;-23
2022/07/13 06:47:39;;;;;;;0.20;0.20;;;;;;;14.69;82.00;97835.35;104896;1271;76964;-24
2022/07/13 06:50:07;;;;;;;0.30;0.30;;;;;;;14.71;81.61;97835.17;104909;1271;75635;-24
2022/07/13 06:52:36;;;;;;;0.30;0.30;;;;;;;14.58;81.74;97849.55;104774;1272;61229;-24
2022/07/13 06:55:04;;;;;;;1.50;0.30;;;;;;;14.46;82.90;97851.27;104952;1272;61990;-24
2022/07/13 06:57:33;;;;;;;0.30;0.30;;;;;;;14.75;82.36;97848.50;104856;1270;76498;-24
2022/07/13 07:00:00;;;;;;;0.50;0.40;;;;;;;14.90;81.67;97852.65;105183;1271;75874;-24
2022/07/13 07:02:28;;;;;;;0.70;0.50;;;;;;;14.78;81.92;97845.48;105125;1271;75436;-24
2022/07/13 07:04:55;;;;;;;0.50;0.30;;;;;;;14.54;82.51;97847.59;104899;1272;61111;-24
2022/07/13 07:07:23;;;;;;;0.40;0.40;;;;;;;14.57;83.31;97842.64;104953;1270;62202;-24
2022/07/13 07:09:50;;;;;;;2.00;0.50;;;;;;;14.87;81.60;97842.90;105094;1271;76215;-24
2022/07/13 07:12:18;;;;;;;1.20;0.50;;;;;;;14.81;81.78;97839.23;104984;1271;76941;-24
2022/07/13 07:14:45;;;;;;;0.40;0.40;;;;;;;14.55;82.85;97839.99;105080;1271;75562;-24
2022/07/13 07:17:13;;;;;;;0.70;0.50;;;;;;;14.39;83.35;97837.69;104885;1272;64652;-24
2022/07/13 07:19:40;;;;;;;0.70;0.60;;;;;;;14.64;82.93;97842.76;104811;1271;62984;-24
2022/07/13 07:22:08;;;;;;;0.70;0.60;;;;;;;14.72;82.82;97842.34;104993;1271;76541;-24
2022/07/13 07:24:35;;;;;;;0.40;0.40;;;;;;;14.71;82.76;97848.34;104982;1271;76772;-24
2022/07/13 07:27:05;;;;;;;0.30;0.30;;;;;;;14.41;83.79;97853.27;105109;1271;74154;-24
2022/07/13 07:29:34;;;;;;;0.40;0.40;;;;;;;14.63;83.53;97853.50;105146;1271;63229;-24
2022/07/13 07:32:04;;;;;;;1.60;0.60;;;;;;;14.86;82.56;97861.67;104755;1271;61699;-24
2022/07/13 07:34:33;;;;;;;0.60;0.60;;;;;;;14.68;82.84;97857.11;104902;1274;74587;-24
2022/07/13 07:37:00;;;;;;;0.80;0.40;;;;;;;14.61;83.64;97866.14;104975;1271;75838;-25
2022/07/13 07:39:28;;;;;;;0.30;0.30;;;;;;;14.81;82.88;97865.08;104791;1271;75179;-25
2022/07/13 07:41:55;;;;;;;0.50;0.50;;;;;;;14.93;81.92;97861.57;104888;1271;63038;-24
2022/07/13 07:44:23;;;;;;;0.90;0.50;;;;;;;14.80;81.98;97865.83;105069;1271;60974;-25
2022/07/13 07:46:53;;;;;;;0.30;0.30;;;;;;;14.65;83.35;97872.66;105131;1271;76249;-25
2022/07/13 07:49:20;;;;;;;1.30;0.40;;;;;;;14.81;82.96;97877.48;105123;1271;76998;-25
2022/07/13 07:51:48;;;;;;;0.30;0.30;;;;;;;15.11;81.81;97879.23;105079;1274;75338;-24
2022/07/13 07:54:35;;;;;;;0.30;0.30;;;;;;;15.05;81.31;97872.39;104913;1271;62851;-25
2022/07/13 07:57:03;;;;;;;0.30;0.30;;;;;;;14.98;81.77;97879.69;104602;1271;482451;-25
2022/07/13 07:59:31;;;;;;;0.60;0.30;;;;;;;14.81;82.76;97879.18;105029;1271;76477;-25
2022/07/13 08:01:59;;;;;;;0.60;0.40;;;;;;;15.17;81.76;97877.91;105115;1271;76218;-25
2022/07/13 08:04:26;;;;;;;0.80;0.30;;;;;;;15.37;80.58;97874.34;104999;1271;75702;-25
2022/07/13 08:06:57;;;;;;;0.40;0.40;;;;;;;15.15;81.58;97870.17;105160;1271;61066;-25
2022/07/13 08:09:24;;;;;;;0.20;0.20;;;;;;;15.08;81.84;97867.27;104970;1271;62788;-24
2022/07/13 08:11:53;;;;;;;1.60;0.30;;;;;;;15.09;82.43;97875.39;104874;1271;74554;-25
2022/07/13 08:14:21;;;;;;;0.80;0.30;;;;;;;15.41;81.28;97875.15;104938;1272;75283;-24
2022/07/13 08:16:49;;;;;;;0.50;0.30;;;;;;;15.53;80.41;97866.23;104913;1271;75368;-24
2022/07/13 08:19:17;;;;;;;0.30;0.30;;;;;;;15.32;81.42;97872.67;105118;1271;61221;-24
2022/07/13 08:22:04;;;;;;;0.40;0.40;;;;;;;15.09;83.21;97877.36;104854;1272;61119;-24
2022/07/13 08:24:32;;;;;;;0.90;0.40;;;;;;;15.08;83.69;97873.28;104766;1272;76332;-25
2022/07/13 08:27:01;;;;;;;1.10;0.40;;;;;;;15.47;82.10;97876.70;105054;1271;77007;-24
2022/07/13 08:29:29;;;;;;;0.30;0.30;;;;;;;15.50;81.51;97870.13;104862;1274;75539;-24
2022/07/13 08:31:56;;;;;;;1.60;0.30;;;;;;;15.43;81.61;97872.75;104942;1271;61088;-24
2022/07/13 08:39:56;;;;;;;0.30;0.30;;;;;;;15.57;81.92;97873.52;105151;1271;75972;-24
2022/07/13 08:42:27;;;;;;;0.70;0.30;;;;;;;15.49;82.50;97873.63;104902;1271;75410;-24
2022/07/13 08:44:55;;;;;;;0.30;0.20;;;;;;;15.35;82.63;97865.98;104794;1274;61130;-23
2022/07/13 08:47:23;;;;;;;0.30;0.30;;;;;;;15.36;82.70;97870.29;104815;1271;61116;-24
2022/07/13 08:49:50;;;;;;;0.20;0.20;;;;;;;15.62;81.98;97859.67;104907;1271;76642;-23
2022/07/13 08:52:28;;;;;;;0.40;0.20;;;;;;;15.63;82.36;97864.60;105163;1271;75904;-23
2022/07/13 08:54:56;;;;;;;0.20;0.20;;;;;;;15.63;82.27;97865.01;104874;1274;75511;-23
2022/07/13 08:57:24;;;;;;;0.40;0.30;;;;;;;15.54;82.19;97859.67;104951;1272;64410;-23
2022/07/13 08:59:51;;;;;;;0.20;0.20;;;;;;;15.84;81.77;97864.58;104978;1271;61769;-24
2022/07/13 09:02:19;;;;;;;0.20;0.20;;;;;;;15.92;80.55;97862.55;104948;1271;75508;-23
2022/07/13 09:04:47;;;;;;;0.50;0.30;;;;;;;15.71;80.99;97864.97;104870;1271;76867;-23
2022/07/13 09:07:14;;;;;;;0.30;0.30;;;;;;;15.56;82.40;97865.09;105007;1271;75322;-23
2022/07/13 09:09:42;;;;;;;0.20;0.20;;;;;;;15.88;81.72;97871.00;104897;1271;61255;-23
2022/07/13 09:12:30;;;;;;;0.50;0.40;;;;;;;16.23;81.00;97872.46;104951;1272;61531;-24
2022/07/13 09:14:58;;;;;;;0.70;0.30;;;;;;;16.32;79.66;97872.16;105146;1271;74719;-24
2022/07/13 09:17:44;;;;;;;0.20;0.20;;;;;;;16.09;79.42;97875.19;105171;1271;76651;-24
2022/07/13 09:22:46;;;;;;;0.30;0.30;;;;;;;16.02;80.10;97879.49;101792;1310;600157;-27
2022/07/13 09:25:34;;;;;;;0.90;0.40;;;;;;;15.95;79.83;97875.86;103902;1284;61053;-22
2022/07/13 09:28:02;;;;;;;0.50;0.40;;;;;;;15.75;80.63;97878.59;103859;1286;61563;-22
2022/07/13 09:30:31;;;;;;;1.60;0.30;;;;;;;15.46;81.86;97878.64;103884;1284;74033;-22
2022/07/13 09:32:59;;;;;;;0.30;0.30;;;;;;;15.59;82.26;97886.40;104673;1274;77391;-22
2022/07/13 09:35:46;;;;;;;0.40;0.40;;;;;;;15.86;81.14;97884.55;104166;1271;656923;-23
2022/07/13 09:38:37;;;;;;;0.60;0.50;;;;;;;15.84;81.15;97883.91;104748;1274;61036;-23
2022/07/13 09:41:14;;;;;;;0.50;0.40;;;;;;;15.66;81.91;97888.40;104996;1271;62132;-23
2022/07/13 09:46:52;;;;;;;1.60;0.50;;;;;;;15.84;81.83;97890.95;104827;1271;75163;-23
2022/07/13 09:49:41;;;;;;;3.20;0.90;;;;;;;15.77;82.40;97889.70;105053;1271;74463;-23
2022/07/13 09:52:09;;;;;;;0.60;0.50;;;;;;;15.52;82.49;97891.45;104802;1271;63089;-26
2022/07/13 09:54:40;;;;;;;1.20;0.50;;;;;;;15.72;82.80;97897.11;104705;1271;63079;-23
2022/07/13 09:57:09;;;;;;;1.10;0.80;;;;;;;15.95;81.90;97898.58;104724;1270;75967;-23
2022/07/13 09:59:37;;;;;;;1.20;0.90;;;;;;;15.70;82.36;97898.09;104979;1271;76980;-23
2022/07/13 10:02:09;;;;;;;0.60;0.60;;;;;;;15.48;83.09;97902.95;104592;1274;75395;-23
2022/07/13 10:04:38;;;;;;;1.10;0.80;;;;;;;15.50;83.03;97901.11;104658;1271;62041;-24
2022/07/13 10:07:16;;;;;;;2.60;1.40;;;;;;;15.64;82.63;97906.08;104751;1271;61682;-24
2022/07/13 10:09:45;;;;;;;1.70;1.20;;;;;;;15.58;83.49;97910.30;104836;1271;74685;-24
2022/07/13 10:12:12;;;;;;;1.50;1.00;;;;;;;15.46;84.24;97918.08;104715;1271;76108;-26
2022/07/13 10:14:41;;;;;;;1.40;1.30;;;;;;;15.47;84.52;97923.85;104805;1271;73418;-26
2022/07/13 10:17:14;;;;;;;2.90;1.20;;;;;;;15.72;83.12;97912.12;104593;1271;62095;-24
2022/07/13 10:20:05;;;;;;;2.80;1.10;;;;;;;15.70;83.58;97914.66;104693;1271;62618;-23
2022/07/13 10:22:48;;;;;;;1.40;1.00;;;;;;;15.68;84.02;97923.11;104632;1274;76478;-23
2022/07/13 10:25:18;;;;;;;1.20;1.00;;;;;;;15.58;84.12;97916.45;104619;1272;77104;-24
2022/07/13 10:28:03;;;;;;;1.90;1.10;;;;;;;15.87;83.85;97923.60;104725;1271;74492;-26
2022/07/13 10:30:32;;;;;;;1.80;1.30;;;;;;;15.79;83.45;97925.50;104744;1271;62845;-24
2022/07/13 10:33:19;;;;;;;2.00;1.50;;;;;;;15.67;83.89;97929.79;104731;1271;61098;-24
2022/07/13 10:35:49;;;;;;;1.20;1.10;;;;;;;15.66;84.51;97931.73;104950;1271;75747;-24
2022/07/13 10:38:18;;;;;;;1.70;1.30;;;;;;;15.86;82.99;97930.73;104424;1272;76043;-24
2022/07/13 10:40:51;;;;;;;2.20;1.40;;;;;;;15.92;82.83;97933.29;104641;1271;75302;-25
2022/07/13 10:43:20;;;;;;;2.00;1.30;;;;;;;15.74;83.33;97932.66;104599;1274;63483;-24
2022/07/13 10:45:48;;;;;;;4.20;1.20;;;;;;;15.65;83.51;97928.80;104638;1274;62790;-24
2022/07/13 10:48:29;;;;;;;2.00;1.30;;;;;;;15.81;83.30;97934.52;104719;1271;75860;-24
2022/07/13 10:51:01;;;;;;;1.50;1.30;;;;;;;16.00;82.59;97942.23;104661;1272;75537;-25
2022/07/13 10:53:38;;;;;;;4.10;1.70;;;;;;;15.89;82.98;97942.86;104642;1274;75454;-24
2022/07/13 10:56:21;;;;;;;1.20;1.10;;;;;;;15.68;83.70;97937.11;104696;1271;64672;-24
2022/07/13 10:58:49;;;;;;;2.30;1.30;;;;;;;16.18;82.59;97920.14;104733;1274;61051;-24
2022/07/13 11:01:35;;;;;;;3.20;1.60;;;;;;;16.56;81.97;97938.67;104850;1274;75757;-24
2022/07/13 11:04:05;;;;;;;4.70;1.60;;;;;;;16.77;81.13;97929.34;104899;1271;77012;-24
2022/07/13 11:06:39;;;;;;;3.60;1.10;;;;;;;16.86;81.12;97930.29;104757;1271;74292;-24
2022/07/13 11:09:16;;;;;;;1.70;1.60;;;;;;;17.25;77.93;97920.01;104641;1274;61583;-25
2022/07/13 11:11:51;;;;;;;2.40;1.50;;;;;;;17.36;77.68;97917.59;104749;1272;61207;-24
2022/07/13 11:14:40;;;;;;;2.00;1.30;;;;;;;17.18;77.37;97924.75;104776;1274;75819;-24
2022/07/13 11:17:15;;;;;;;1.10;1.00;;;;;;;16.98;78.58;97926.70;104821;1274;76851;-24
2022/07/13 11:19:55;;;;;;;2.00;1.10;;;;;;;17.04;78.21;97933.73;104693;1271;75379;-24
2022/07/13 11:25:25;;;;;;;1.30;1.10;;;;;;;17.67;77.21;97945.26;104619;1274;62821;-24
2022/07/13 11:28:17;;;;;;;1.20;1.00;;;;;;;17.57;76.88;97937.85;104669;1274;73737;-25
2022/07/13 11:30:52;;;;;;;2.00;1.20;;;;;;;17.54;76.55;97939.27;104665;1274;77925;-25
2022/07/13 11:33:20;;;;;;;1.50;1.10;;;;;;;17.92;75.90;97935.02;104630;1274;75516;-24
2022/07/13 11:35:47;;;;;;;1.30;1.10;;;;;;;18.37;75.02;97937.04;104707;1274;62613;-26
2022/07/13 11:38:16;;;;;;;0.90;0.80;;;;;;;18.45;73.89;97935.17;104798;1274;63015;-24
2022/07/13 11:40:44;;;;;;;2.10;1.00;;;;;;;18.23;74.07;97935.42;104658;1274;74816;-24
2022/07/13 11:43:12;;;;;;;1.60;0.80;;;;;;;18.24;74.62;97937.16;104725;1274;77027;-24
2022/07/13 11:45:41;;;;;;;1.20;1.10;;;;;;;18.42;73.43;97934.77;104718;1274;73194;-25
2022/07/13 11:48:12;;;;;;;1.40;1.20;;;;;;;18.73;72.37;97936.16;104655;1275;62875;-25
2022/07/13 11:50:43;;;;;;;2.80;0.90;;;;;;;18.82;72.43;97938.91;104667;1273;61912;-26